createdAt,value
2023-02-24T00:00:40.984Z,22.19
2023-02-24T00:03:07.926Z,22.13
2023-02-24T00:05:34.884Z,22.13
2023-02-24T00:08:01.819Z,22.06
2023-02-24T00:10:28.724Z,22.06
2023-02-24T00:12:55.663Z,22.00
2023-02-24T00:15:22.744Z,21.94
2023-02-24T00:17:49.699Z,21.94
2023-02-24T00:20:16.592Z,21.88
2023-02-24T00:22:43.485Z,21.88
2023-02-24T00:25:10.402Z,21.81
2023-02-24T00:27:37.327Z,21.81
2023-02-24T00:30:04.277Z,21.75
2023-02-24T00:32:31.356Z,21.75
2023-02-24T00:34:58.384Z,21.75
2023-02-24T00:37:25.334Z,21.69
2023-02-24T00:39:52.240Z,21.63
2023-02-24T00:42:19.221Z,21.63
2023-02-24T00:44:46.108Z,21.63
2023-02-24T00:47:13.043Z,21.56
2023-02-24T00:49:39.947Z,21.56
2023-02-24T00:52:06.860Z,21.56
2023-02-24T00:54:33.815Z,21.50
2023-02-24T00:57:00.729Z,21.50
2023-02-24T00:59:27.664Z,21.44
2023-02-24T01:01:54.730Z,21.44
2023-02-24T01:04:21.826Z,21.38
2023-02-24T01:06:48.891Z,21.38
2023-02-24T01:09:15.850Z,21.38
2023-02-24T01:11:42.787Z,21.31
2023-02-24T01:14:09.738Z,21.31
2023-02-24T01:16:36.658Z,21.25
2023-02-24T01:19:03.633Z,21.25
2023-02-24T01:21:30.543Z,21.19
2023-02-24T01:23:57.488Z,21.19
2023-02-24T01:26:24.408Z,21.19
2023-02-24T01:28:51.292Z,21.19
2023-02-24T01:31:18.404Z,21.13
2023-02-24T01:33:45.501Z,21.13
2023-02-24T01:36:12.467Z,21.06
2023-02-24T01:38:39.366Z,21.06
2023-02-24T01:41:06.271Z,21.06
2023-02-24T01:43:33.207Z,21.00
2023-02-24T01:46:00.135Z,21.00
2023-02-24T01:48:27.071Z,21.00
2023-02-24T01:50:54.175Z,20.94
2023-02-24T01:53:21.109Z,20.94
2023-02-24T01:55:48.038Z,20.94
2023-02-24T01:58:14.972Z,20.88
2023-02-24T02:00:41.892Z,20.88
2023-02-24T02:03:08.817Z,20.88
2023-02-24T02:05:35.736Z,20.81
2023-02-24T02:08:02.765Z,20.81
2023-02-24T02:10:29.700Z,20.81
2023-02-24T02:12:56.613Z,20.75
2023-02-24T02:15:23.548Z,20.75
2023-02-24T02:17:50.483Z,20.75
2023-02-24T02:20:17.397Z,20.69
2023-02-24T02:22:44.344Z,20.69
2023-02-24T02:25:11.251Z,20.69
2023-02-24T02:27:38.169Z,20.69
2023-02-24T02:30:05.136Z,20.63
2023-02-24T02:32:32.258Z,20.63
2023-02-24T02:34:59.351Z,20.63
2023-02-24T02:37:26.290Z,20.56
2023-02-24T02:39:53.257Z,20.56
2023-02-24T02:42:20.189Z,20.56
2023-02-24T02:44:47.113Z,20.56
2023-02-24T02:47:14.042Z,20.50
2023-02-24T02:49:40.997Z,20.50
2023-02-24T02:52:07.942Z,20.50
2023-02-24T02:54:34.903Z,20.44
2023-02-24T02:57:01.847Z,20.44
2023-02-24T02:59:28.805Z,20.44
2023-02-24T03:01:55.855Z,20.44
2023-02-24T03:04:22.884Z,20.38
2023-02-24T03:06:49.957Z,20.38
2023-02-24T03:09:16.923Z,20.38
2023-02-24T03:11:43.825Z,20.31
2023-02-24T03:14:10.890Z,20.31
2023-02-24T03:16:37.919Z,20.31
2023-02-24T03:19:04.914Z,20.31
2023-02-24T03:21:31.870Z,20.25
2023-02-24T03:23:58.812Z,20.25
2023-02-24T03:26:25.733Z,20.25
2023-02-24T03:28:52.693Z,20.25
2023-02-24T03:31:19.908Z,20.19
2023-02-24T03:33:47.277Z,20.19
2023-02-24T03:36:14.209Z,20.19
2023-02-24T03:38:41.118Z,20.13
2023-02-24T03:41:08.050Z,20.13
2023-02-24T03:43:34.989Z,20.13
2023-02-24T03:46:01.963Z,20.13
2023-02-24T03:48:29.029Z,20.06
2023-02-24T03:50:56.043Z,20.06
2023-02-24T03:53:22.990Z,20.06
2023-02-24T03:55:49.915Z,20.06
2023-02-24T03:58:16.880Z,20.06
2023-02-24T04:00:43.819Z,20.00
2023-02-24T04:03:14.865Z,20.00
2023-02-24T04:05:41.885Z,20.00
2023-02-24T04:08:08.836Z,20.00
2023-02-24T04:10:35.769Z,19.94
2023-02-24T04:13:02.699Z,19.94
2023-02-24T04:15:29.723Z,19.94
2023-02-24T04:17:56.686Z,19.94
2023-02-24T04:20:23.646Z,19.94
2023-02-24T04:22:50.604Z,19.94
2023-02-24T04:25:17.571Z,19.88
2023-02-24T04:27:44.496Z,19.88
2023-02-24T04:30:11.431Z,19.88
2023-02-24T04:32:38.462Z,19.88
2023-02-24T04:35:05.633Z,19.88
2023-02-24T04:37:32.573Z,19.81
2023-02-24T04:39:59.486Z,19.81
2023-02-24T04:42:26.420Z,20.13
2023-02-24T04:44:53.357Z,20.06
2023-02-24T04:47:20.301Z,20.06
2023-02-24T04:49:47.298Z,20.00
2023-02-24T04:52:14.307Z,19.94
2023-02-24T04:54:41.240Z,19.94
2023-02-24T04:57:08.206Z,19.94
2023-02-24T04:59:35.205Z,19.88
2023-02-24T05:02:02.146Z,19.88
2023-02-24T05:04:29.150Z,19.88
2023-02-24T05:06:56.116Z,19.88
2023-02-24T05:09:23.054Z,20.44
2023-02-24T05:11:50.012Z,25.44
2023-02-24T05:14:16.946Z,29.56
2023-02-24T05:16:43.888Z,31.19
2023-02-24T05:19:11.011Z,31.19
2023-02-24T05:21:37.939Z,30.94
2023-02-24T05:24:04.877Z,27.94
2023-02-24T05:26:31.803Z,25.75
2023-02-24T05:28:59.980Z,27.19
2023-02-24T05:31:27.236Z,30.38
2023-02-24T05:33:54.265Z,31.94
2023-02-24T05:36:21.183Z,32.25
2023-02-24T05:38:48.128Z,31.69
2023-02-24T05:41:15.136Z,28.88
2023-02-24T05:43:42.120Z,27.88
2023-02-24T05:46:09.060Z,30.31
2023-02-24T05:48:36.003Z,32.19
2023-02-24T05:51:05.037Z,33.00
2023-02-24T05:53:32.130Z,32.56
2023-02-24T05:55:59.087Z,31.75
2023-02-24T05:58:26.068Z,31.38
2023-02-24T06:00:53.015Z,32.00
2023-02-24T06:03:20.017Z,33.00
2023-02-24T06:05:46.951Z,33.69
2023-02-24T06:08:13.966Z,34.00
2023-02-24T06:10:41.062Z,34.19
2023-02-24T06:13:08.063Z,34.50
2023-02-24T06:15:35.000Z,34.75
2023-02-24T06:18:02.243Z,35.00
2023-02-24T06:20:29.143Z,35.25
2023-02-24T06:22:56.088Z,35.38
2023-02-24T06:25:23.049Z,35.50
2023-02-24T06:27:49.964Z,35.50
2023-02-24T06:30:16.980Z,35.56
2023-02-24T06:32:44.024Z,35.56
2023-02-24T06:35:11.020Z,35.50
2023-02-24T06:37:37.956Z,35.56
2023-02-24T06:40:04.935Z,35.63
2023-02-24T06:42:31.937Z,35.56
2023-02-24T06:44:58.847Z,35.50
2023-02-24T06:47:25.778Z,35.44
2023-02-24T06:49:52.832Z,35.50
2023-02-24T06:52:19.814Z,35.56
2023-02-24T06:54:46.829Z,35.50
2023-02-24T06:57:13.738Z,35.44
2023-02-24T06:59:40.684Z,35.25
2023-02-24T07:02:07.749Z,35.13
2023-02-24T07:04:34.749Z,34.94
2023-02-24T07:07:01.694Z,34.81
2023-02-24T07:09:28.628Z,34.69
2023-02-24T07:11:55.555Z,34.50
2023-02-24T07:14:22.547Z,34.56
2023-02-24T07:16:49.467Z,34.69
2023-02-24T07:19:16.416Z,34.69
2023-02-24T07:21:43.340Z,34.69
2023-02-24T07:24:10.285Z,34.75
2023-02-24T07:26:37.215Z,34.81
2023-02-24T07:29:04.122Z,34.94
2023-02-24T07:31:31.120Z,35.06
2023-02-24T07:33:58.083Z,35.19
2023-02-24T07:36:24.994Z,35.25
2023-02-24T07:38:51.910Z,35.31
2023-02-24T07:41:19.199Z,35.38
2023-02-24T07:43:46.306Z,35.50
2023-02-24T07:46:13.365Z,35.63
2023-02-24T07:48:40.344Z,35.69
2023-02-24T07:51:07.282Z,35.75
2023-02-24T07:53:34.363Z,35.69
2023-02-24T07:56:01.309Z,35.56
2023-02-24T07:58:28.257Z,35.44
2023-02-24T08:00:55.152Z,35.31
2023-02-24T08:03:22.115Z,35.19
2023-02-24T08:05:49.090Z,35.06
2023-02-24T08:08:16.017Z,34.94
2023-02-24T08:10:42.955Z,35.00
2023-02-24T08:13:09.854Z,35.06
2023-02-24T08:15:36.808Z,35.13
2023-02-24T08:18:03.801Z,35.19
2023-02-24T08:20:30.812Z,35.31
2023-02-24T08:22:57.751Z,35.44
2023-02-24T08:25:24.683Z,35.50
2023-02-24T08:28:05.130Z,35.63
2023-02-24T08:30:34.209Z,35.69
2023-02-24T08:33:01.159Z,35.81
2023-02-24T08:35:28.097Z,35.81
2023-02-24T08:37:55.044Z,35.75
2023-02-24T08:40:21.988Z,35.81
2023-02-24T08:42:48.926Z,35.81
2023-02-24T08:45:15.828Z,35.75
2023-02-24T08:47:42.845Z,35.63
2023-02-24T08:50:09.775Z,35.44
2023-02-24T08:52:36.678Z,35.31
2023-02-24T08:55:03.587Z,35.19
2023-02-24T08:57:30.567Z,35.06
2023-02-24T08:59:57.543Z,34.94
2023-02-24T09:02:24.538Z,34.88
2023-02-24T09:04:51.612Z,34.94
2023-02-24T09:07:18.596Z,34.94
2023-02-24T09:09:45.550Z,34.94
2023-02-24T09:12:12.472Z,35.00
2023-02-24T09:14:39.394Z,35.00
2023-02-24T09:17:06.731Z,35.06
2023-02-24T09:19:33.928Z,35.13
2023-02-24T09:22:01.842Z,35.19
2023-02-24T09:24:29.906Z,35.31
2023-02-24T09:26:56.838Z,35.38
2023-02-24T09:29:23.851Z,35.38
2023-02-24T09:31:51.028Z,35.31
2023-02-24T09:34:18.106Z,35.19
2023-02-24T09:36:45.153Z,35.06
2023-02-24T09:39:12.134Z,34.88
2023-02-24T09:41:39.045Z,34.75
2023-02-24T09:44:05.974Z,34.69
2023-02-24T09:46:33.010Z,34.56
2023-02-24T09:49:00.034Z,34.56
2023-02-24T09:51:26.999Z,34.69
2023-02-24T09:53:53.970Z,34.75
2023-02-24T09:56:20.948Z,34.81
2023-02-24T09:58:48.110Z,34.88
2023-02-24T10:01:15.297Z,34.94
2023-02-24T10:03:42.416Z,35.06
2023-02-24T10:06:09.511Z,35.13
2023-02-24T10:08:36.474Z,35.19
2023-02-24T10:11:03.397Z,35.31
2023-02-24T10:13:30.505Z,35.38
2023-02-24T10:15:57.756Z,35.31
2023-02-24T10:18:24.789Z,35.25
2023-02-24T10:20:51.731Z,35.13
2023-02-24T10:23:18.640Z,35.00
2023-02-24T10:25:45.590Z,34.88
2023-02-24T10:28:12.564Z,34.75
2023-02-24T10:30:39.632Z,34.56
2023-02-24T10:33:06.618Z,34.44
2023-02-24T10:35:33.659Z,34.31
2023-02-24T10:38:00.795Z,34.13
2023-02-24T10:40:27.748Z,34.06
2023-02-24T10:42:54.656Z,34.13
2023-02-24T10:45:23.154Z,34.13
2023-02-24T10:47:50.302Z,34.19
2023-02-24T10:50:17.257Z,34.25
2023-02-24T10:52:44.205Z,34.31
2023-02-24T10:55:11.176Z,34.38
2023-02-24T10:57:44.702Z,34.44
2023-02-24T11:00:17.321Z,34.44
2023-02-24T11:02:44.275Z,34.38
2023-02-24T11:05:11.242Z,34.25
2023-02-24T11:07:38.173Z,34.13
2023-02-24T11:10:05.102Z,34.00
2023-02-24T11:12:32.051Z,33.88
2023-02-24T11:14:58.954Z,33.75
2023-02-24T11:17:26.027Z,33.81
2023-02-24T11:19:52.973Z,33.88
2023-02-24T11:22:19.912Z,34.00
2023-02-24T11:24:46.840Z,34.13
2023-02-24T11:27:13.769Z,34.13
2023-02-24T11:29:40.681Z,34.19
2023-02-24T11:32:07.775Z,34.31
2023-02-24T11:34:34.841Z,34.50
2023-02-24T11:37:01.767Z,34.63
2023-02-24T11:39:28.829Z,34.75
2023-02-24T11:41:55.736Z,34.88
2023-02-24T11:44:22.709Z,34.94
2023-02-24T11:46:49.714Z,34.94
2023-02-24T11:49:16.615Z,34.88
2023-02-24T11:51:43.614Z,34.75
2023-02-24T11:54:10.529Z,34.63
2023-02-24T11:56:37.449Z,34.50
2023-02-24T11:59:04.455Z,34.44
2023-02-24T12:01:31.454Z,34.38
2023-02-24T12:03:58.401Z,34.44
2023-02-24T12:06:25.518Z,34.56
2023-02-24T12:08:52.441Z,34.63
2023-02-24T12:11:19.503Z,34.75
2023-02-24T12:13:46.532Z,34.81
2023-02-24T12:16:13.462Z,34.88
2023-02-24T12:18:40.418Z,35.00
2023-02-24T12:21:07.359Z,35.00
2023-02-24T12:23:34.322Z,34.88
2023-02-24T12:26:01.243Z,34.75
2023-02-24T12:28:28.169Z,34.69
2023-02-24T12:30:55.154Z,34.56
2023-02-24T12:33:22.134Z,34.44
2023-02-24T12:35:49.057Z,34.25
2023-02-24T12:38:16.394Z,34.13
2023-02-24T12:40:43.300Z,34.00
2023-02-24T12:43:10.255Z,33.81
2023-02-24T12:45:37.290Z,33.63
2023-02-24T12:48:04.264Z,33.63
2023-02-24T12:50:31.150Z,33.75
2023-02-24T12:52:58.219Z,33.88
2023-02-24T12:55:25.150Z,34.00
2023-02-24T12:57:52.110Z,34.06
2023-02-24T13:00:19.031Z,34.19
2023-02-24T13:02:45.975Z,34.31
2023-02-24T13:05:12.948Z,34.38
2023-02-24T13:07:39.890Z,34.44
2023-02-24T13:10:06.847Z,34.56
2023-02-24T13:12:33.810Z,34.56
2023-02-24T13:15:00.731Z,34.56
2023-02-24T13:17:27.640Z,34.50
2023-02-24T13:19:54.602Z,34.38
2023-02-24T13:22:21.538Z,34.31
2023-02-24T13:24:48.466Z,34.19
2023-02-24T13:27:15.391Z,34.13
2023-02-24T13:29:42.324Z,34.00
2023-02-24T13:32:09.281Z,33.88
2023-02-24T13:34:36.246Z,33.81
2023-02-24T13:37:03.180Z,33.75
2023-02-24T13:39:30.092Z,33.75
2023-02-24T13:41:57.531Z,33.75
2023-02-24T13:44:24.477Z,33.81
2023-02-24T13:46:51.502Z,33.88
2023-02-24T13:49:18.444Z,33.94
2023-02-24T13:51:45.391Z,33.88
2023-02-24T13:54:12.402Z,33.81
2023-02-24T13:56:39.455Z,33.69
2023-02-24T13:59:06.364Z,33.56
2023-02-24T14:01:33.377Z,33.56
2023-02-24T14:04:00.321Z,33.56
2023-02-24T14:06:27.260Z,33.56
2023-02-24T14:08:54.190Z,33.56
2023-02-24T14:11:21.330Z,33.56
2023-02-24T14:13:48.479Z,33.63
2023-02-24T14:16:15.438Z,33.63
2023-02-24T14:18:42.446Z,33.75
2023-02-24T14:21:09.396Z,33.88
2023-02-24T14:23:36.376Z,33.94
2023-02-24T14:26:03.310Z,34.06
2023-02-24T14:28:30.223Z,34.19
2023-02-24T14:30:57.265Z,34.25
2023-02-24T14:33:24.249Z,34.38
2023-02-24T14:35:51.157Z,34.38
2023-02-24T14:38:18.187Z,34.31
2023-02-24T14:40:45.124Z,34.25
2023-02-24T14:43:12.670Z,34.13
2023-02-24T14:45:39.654Z,34.06
2023-02-24T14:48:06.791Z,33.94
2023-02-24T14:50:33.744Z,33.88
2023-02-24T14:53:00.683Z,33.75
2023-02-24T14:55:27.674Z,33.81
2023-02-24T14:57:54.646Z,33.94
2023-02-24T15:00:21.619Z,34.00
2023-02-24T15:02:48.598Z,34.06
2023-02-24T15:05:15.570Z,34.19
2023-02-24T15:07:42.523Z,34.31
2023-02-24T15:10:09.456Z,34.44
2023-02-24T15:12:36.397Z,34.50
2023-02-24T15:15:03.604Z,34.56
2023-02-24T15:17:30.499Z,34.50
2023-02-24T15:19:57.463Z,34.44
2023-02-24T15:22:24.408Z,34.31
2023-02-24T15:24:51.407Z,34.25
2023-02-24T15:27:18.398Z,34.13
2023-02-24T15:29:45.337Z,34.00
2023-02-24T15:32:12.501Z,33.94
2023-02-24T15:34:39.523Z,34.00
2023-02-24T15:37:08.257Z,34.13
2023-02-24T15:39:36.141Z,34.19
2023-02-24T15:42:03.060Z,34.25
2023-02-24T15:44:30.047Z,34.38
2023-02-24T15:46:57.075Z,34.44
2023-02-24T15:49:24.079Z,34.56
2023-02-24T15:51:51.012Z,34.69
2023-02-24T15:54:18.038Z,34.75
2023-02-24T15:56:44.992Z,34.69
2023-02-24T15:59:11.928Z,34.63
2023-02-24T16:01:38.870Z,34.50
2023-02-24T16:04:05.878Z,34.44
2023-02-24T16:06:32.899Z,34.31
2023-02-24T16:08:59.854Z,34.19
2023-02-24T16:11:26.792Z,34.06
2023-02-24T16:13:53.722Z,34.06
2023-02-24T16:16:21.047Z,34.19
2023-02-24T16:18:48.244Z,34.25
2023-02-24T16:21:15.240Z,34.31
2023-02-24T16:23:42.267Z,34.44
2023-02-24T16:26:09.199Z,34.50
2023-02-24T16:28:36.186Z,34.56
2023-02-24T16:31:03.228Z,34.69
2023-02-24T16:33:31.996Z,34.81
2023-02-24T16:36:00.186Z,34.88
2023-02-24T16:38:27.202Z,34.81
2023-02-24T16:40:54.152Z,34.75
2023-02-24T16:43:21.094Z,34.63
2023-02-24T16:45:48.126Z,34.50
2023-02-24T16:48:15.068Z,34.44
2023-02-24T16:50:41.997Z,34.31
2023-02-24T16:53:09.100Z,34.19
2023-02-24T16:55:36.040Z,34.19
2023-02-24T16:58:02.987Z,34.25
2023-02-24T17:00:29.946Z,34.31
2023-02-24T17:02:56.868Z,34.38
2023-02-24T17:05:23.827Z,34.44
2023-02-24T17:07:50.871Z,34.56
2023-02-24T17:10:17.874Z,34.69
2023-02-24T17:12:44.847Z,34.75
2023-02-24T17:15:11.776Z,34.81
2023-02-24T17:17:38.737Z,34.81
2023-02-24T17:20:05.660Z,34.69
2023-02-24T17:22:32.698Z,34.63
2023-02-24T17:24:59.648Z,34.50
2023-02-24T17:27:26.564Z,34.38
2023-02-24T17:29:53.515Z,34.31
2023-02-24T17:32:20.582Z,34.19
2023-02-24T17:34:47.732Z,34.13
2023-02-24T17:37:14.679Z,34.19
2023-02-24T17:39:41.642Z,34.25
2023-02-24T17:42:08.562Z,34.25
2023-02-24T17:44:35.564Z,34.31
2023-02-24T17:47:02.609Z,34.44
2023-02-24T17:49:29.542Z,34.50
2023-02-24T17:51:56.465Z,34.63
2023-02-24T17:54:23.410Z,34.69
2023-02-24T17:56:50.518Z,34.75
2023-02-24T17:59:17.479Z,34.69
2023-02-24T18:01:44.553Z,34.63
2023-02-24T18:04:11.446Z,34.50
2023-02-24T18:06:38.454Z,34.38
2023-02-24T18:09:05.402Z,34.31
2023-02-24T18:11:32.427Z,34.19
2023-02-24T18:14:00.615Z,34.06
2023-02-24T18:16:27.893Z,34.06
2023-02-24T18:18:54.861Z,34.19
2023-02-24T18:21:21.771Z,34.25
2023-02-24T18:23:48.700Z,34.38
2023-02-24T18:26:15.631Z,34.44
2023-02-24T18:28:42.708Z,34.56
2023-02-24T18:31:09.831Z,34.69
2023-02-24T18:33:36.936Z,34.81
2023-02-24T18:36:03.953Z,34.94
2023-02-24T18:38:30.869Z,35.00
2023-02-24T18:40:57.807Z,35.00
2023-02-24T18:43:25.069Z,34.94
2023-02-24T18:45:52.016Z,34.88
2023-02-24T18:48:18.955Z,34.81
2023-02-24T18:50:45.900Z,34.69
2023-02-24T18:53:12.836Z,34.63
2023-02-24T18:55:39.821Z,34.50
2023-02-24T18:58:06.858Z,34.38
2023-02-24T19:00:33.794Z,34.44
2023-02-24T19:03:00.768Z,34.56
2023-02-24T19:05:38.017Z,34.56
2023-02-24T19:08:05.297Z,34.56
2023-02-24T19:10:32.314Z,34.50
2023-02-24T19:12:59.305Z,34.38
2023-02-24T19:15:26.244Z,34.25
2023-02-24T19:17:53.255Z,34.19
2023-02-24T19:20:20.189Z,34.25
2023-02-24T19:22:48.391Z,34.25
2023-02-24T19:25:16.733Z,34.31
2023-02-24T19:27:43.736Z,34.38
2023-02-24T19:30:10.684Z,34.44
2023-02-24T19:32:37.761Z,34.56
2023-02-24T19:35:04.760Z,34.69
2023-02-24T19:37:31.687Z,34.75
2023-02-24T19:39:58.886Z,34.81
2023-02-24T19:42:25.824Z,34.75
2023-02-24T19:44:52.849Z,34.69
2023-02-24T19:47:19.775Z,34.56
2023-02-24T19:49:46.750Z,34.50
2023-02-24T19:52:13.889Z,34.44
2023-02-24T19:54:40.869Z,34.44
2023-02-24T19:57:10.200Z,34.38
2023-02-24T19:59:37.304Z,34.44
2023-02-24T20:02:04.231Z,34.50
2023-02-24T20:04:31.205Z,34.38
2023-02-24T20:06:58.116Z,34.19
2023-02-24T20:09:25.057Z,34.00
2023-02-24T20:11:51.982Z,33.75
2023-02-24T20:14:18.976Z,33.50
2023-02-24T20:16:46.268Z,33.31
2023-02-24T20:19:13.290Z,33.06
2023-02-24T20:21:40.232Z,32.88
2023-02-24T20:24:07.176Z,32.69
2023-02-24T20:26:34.081Z,32.44
2023-02-24T20:29:01.151Z,32.25
2023-02-24T20:31:28.151Z,32.00
2023-02-24T20:33:55.116Z,31.81
2023-02-24T20:36:22.591Z,31.56
2023-02-24T20:38:49.788Z,31.38
2023-02-24T20:41:16.732Z,31.13
2023-02-24T20:43:43.701Z,30.94
2023-02-24T20:46:10.734Z,30.75
2023-02-24T20:48:37.659Z,30.63
2023-02-24T20:51:04.595Z,30.44
2023-02-24T20:53:31.539Z,30.25
2023-02-24T20:55:58.479Z,30.06
2023-02-24T20:58:25.424Z,29.88
2023-02-24T21:00:52.368Z,29.75
2023-02-24T21:03:19.339Z,29.56
2023-02-24T21:05:46.258Z,29.44
2023-02-24T21:08:13.264Z,29.31
2023-02-24T21:10:40.195Z,29.19
2023-02-24T21:13:07.122Z,29.06
2023-02-24T21:15:34.068Z,28.88
2023-02-24T21:18:00.994Z,28.75
2023-02-24T21:20:27.923Z,28.69
2023-02-24T21:22:54.854Z,28.56
2023-02-24T21:25:21.904Z,28.38
2023-02-24T21:27:48.857Z,28.25
2023-02-24T21:30:15.811Z,28.06
2023-02-24T21:32:42.748Z,27.88
2023-02-24T21:35:09.706Z,27.81
2023-02-24T21:37:36.651Z,27.63
2023-02-24T21:40:03.593Z,27.50
2023-02-24T21:42:30.576Z,27.38
2023-02-24T21:44:57.592Z,27.25
2023-02-24T21:47:24.520Z,27.06
2023-02-24T21:49:51.453Z,27.00
2023-02-24T21:52:18.401Z,26.81
2023-02-24T21:54:45.411Z,26.69
2023-02-24T21:57:12.342Z,26.56
2023-02-24T21:59:39.342Z,26.44
2023-02-24T22:02:06.289Z,26.38
2023-02-24T22:04:33.215Z,26.31
2023-02-24T22:07:00.114Z,26.31
2023-02-24T22:09:27.043Z,26.25
2023-02-24T22:11:53.963Z,26.25
2023-02-24T22:14:20.883Z,26.19
2023-02-24T22:16:47.826Z,26.13
2023-02-24T22:19:14.770Z,26.06
2023-02-24T22:21:41.765Z,26.00
2023-02-24T22:24:08.689Z,25.94
2023-02-24T22:26:35.633Z,25.88
2023-02-24T22:29:02.600Z,25.81
2023-02-24T22:31:29.549Z,25.69
2023-02-24T22:33:56.545Z,25.63
2023-02-24T22:36:23.788Z,25.50
2023-02-24T22:38:50.897Z,25.38
2023-02-24T22:41:17.873Z,25.31
2023-02-24T22:43:44.792Z,25.19
2023-02-24T22:46:11.766Z,25.06
2023-02-24T22:48:38.779Z,25.00
2023-02-24T22:51:05.742Z,24.88
2023-02-24T22:53:32.660Z,24.75
2023-02-24T22:55:59.576Z,24.69
2023-02-24T22:58:26.503Z,24.56
2023-02-24T23:00:53.492Z,24.50
2023-02-24T23:03:20.507Z,24.38
2023-02-24T23:05:47.456Z,24.25
2023-02-24T23:08:14.363Z,24.19
2023-02-24T23:10:41.313Z,24.06
2023-02-24T23:13:08.228Z,24.00
2023-02-24T23:15:35.153Z,23.94
2023-02-24T23:18:02.077Z,23.81
2023-02-24T23:20:29.012Z,23.75
2023-02-24T23:22:55.904Z,23.63
2023-02-24T23:25:22.819Z,23.56
2023-02-24T23:27:49.764Z,23.50
2023-02-24T23:30:16.689Z,23.44
2023-02-24T23:32:43.662Z,23.38
2023-02-24T23:35:10.662Z,23.31
2023-02-24T23:37:37.567Z,23.31
2023-02-24T23:40:04.481Z,23.25
2023-02-24T23:42:31.410Z,23.19
2023-02-24T23:44:58.329Z,23.13
2023-02-24T23:47:25.363Z,23.06
2023-02-24T23:49:52.282Z,23.00
2023-02-24T23:52:19.179Z,23.00
2023-02-24T23:54:46.178Z,22.94
2023-02-24T23:57:13.081Z,22.88
2023-02-24T23:59:40.012Z,22.81
